AIC001 VABB-VOBL
Flight info
| Callsign | AIC001 |
|---|---|
| Flight time | 1h 21m |
| Altitude | 41000 |
| Route | VEVAK2A EPKOS Q9 RIKBU RIKBU7E |
| Aircraft | A359/H-SDE2E3GHIJ3J4J5LM1ORWXY/LB1D1 |
Departure
| Time | 2026-04-28 14:15 |
|---|---|
| Airport | Chhatrapati Shivaji Maharaj International Airport (VABB) |
Arrival
| Time | 2026-04-28 15:36 |
|---|---|
| Airport | Kempegowda International Airport Bengaluru (VOBL) |
| Time | Latitude | Longitude | Altitude | Speed | Heading |
|---|---|---|---|---|---|
| 2026-04-28 13:43 | 19.09460 | 72.87587 | 48 ft | 0 kts | 31° |
| 2026-04-28 14:01 | 19.09440 | 72.87575 | 52 ft | 4 kts | 31° |
| 2026-04-28 14:02 | 19.09416 | 72.87559 | 48 ft | 4 kts | 32° |
| 2026-04-28 14:02 | 19.09396 | 72.87544 | 48 ft | 3 kts | 42° |
| 2026-04-28 14:02 | 19.09387 | 72.87533 | 48 ft | 2 kts | 77° |
| 2026-04-28 14:02 | 19.09387 | 72.87522 | 48 ft | 2 kts | 119° |
| 2026-04-28 14:03 | 19.09393 | 72.87512 | 48 ft | 2 kts | 129° |
| 2026-04-28 14:03 | 19.09398 | 72.87506 | 47 ft | 0 kts | 131° |
| 2026-04-28 14:11 | 19.09386 | 72.87520 | 47 ft | 7 kts | 131° |
| 2026-04-28 14:11 | 19.09328 | 72.87592 | 51 ft | 20 kts | 130° |
| 2026-04-28 14:11 | 19.09226 | 72.87669 | 49 ft | 20 kts | 171° |
| 2026-04-28 14:12 | 19.09151 | 72.87704 | 54 ft | 16 kts | 124° |
| 2026-04-28 14:12 | 19.09115 | 72.87802 | 49 ft | 9 kts | 150° |
| 2026-04-28 14:12 | 19.09057 | 72.87897 | 49 ft | 24 kts | 89° |
| 2026-04-28 14:12 | 19.09047 | 72.88029 | 50 ft | 1 kts | 131° |
| 2026-04-28 14:13 | 19.09016 | 72.88045 | 49 ft | 0 kts | 170° |
| 2026-04-28 14:13 | 19.08970 | 72.88053 | 49 ft | 15 kts | 177° |
| 2026-04-28 14:13 | 19.08893 | 72.87997 | 49 ft | 12 kts | 261° |
| 2026-04-28 14:13 | 19.08890 | 72.87965 | 52 ft | 0 kts | 266° |
| 2026-04-28 14:14 | 19.08890 | 72.87960 | 53 ft | 5 kts | 266° |
| 2026-04-28 14:14 | 19.08883 | 72.87722 | 47 ft | 79 kts | 269° |
| 2026-04-28 14:15 | 19.08871 | 72.86785 | 63 ft | 173 kts | 269° |
| 2026-04-28 14:15 | 19.08833 | 72.85351 | 695 ft | 211 kts | 269° |
| 2026-04-28 14:15 | 19.08809 | 72.83673 | 1508 ft | 248 kts | 270° |
| 2026-04-28 14:15 | 19.08802 | 72.81802 | 2596 ft | 253 kts | 271° |
| 2026-04-28 14:16 | 19.08782 | 72.79929 | 3209 ft | 259 kts | 271° |
| 2026-04-28 14:16 | 19.08727 | 72.78010 | 3796 ft | 264 kts | 267° |
| 2026-04-28 14:16 | 19.08112 | 72.76174 | 4398 ft | 273 kts | 237° |
| 2026-04-28 14:16 | 19.06599 | 72.74932 | 4979 ft | 284 kts | 204° |
| 2026-04-28 14:17 | 19.04640 | 72.74641 | 5599 ft | 288 kts | 181° |
| 2026-04-28 14:17 | 19.02657 | 72.74710 | 6204 ft | 290 kts | 180° |
| 2026-04-28 14:17 | 19.00639 | 72.74762 | 6807 ft | 290 kts | 181° |
| 2026-04-28 14:17 | 18.98620 | 72.74771 | 7429 ft | 289 kts | 182° |
| 2026-04-28 14:18 | 18.96611 | 72.74752 | 8052 ft | 289 kts | 182° |
| 2026-04-28 14:18 | 18.94591 | 72.74718 | 8547 ft | 291 kts | 183° |
| 2026-04-28 14:18 | 18.92574 | 72.74670 | 8727 ft | 290 kts | 182° |
| 2026-04-28 14:18 | 18.90550 | 72.74623 | 8766 ft | 291 kts | 182° |
| 2026-04-28 14:19 | 18.88518 | 72.74573 | 8763 ft | 291 kts | 183° |
| 2026-04-28 14:19 | 18.86495 | 72.74521 | 8761 ft | 291 kts | 183° |
| 2026-04-28 14:19 | 18.84469 | 72.74468 | 8760 ft | 291 kts | 182° |
| 2026-04-28 14:19 | 18.82443 | 72.74410 | 8764 ft | 292 kts | 182° |
| 2026-04-28 14:20 | 18.80415 | 72.74358 | 8763 ft | 292 kts | 182° |
| 2026-04-28 14:20 | 18.78382 | 72.74345 | 8760 ft | 292 kts | 179° |
| 2026-04-28 14:20 | 18.76383 | 72.74739 | 8821 ft | 294 kts | 165° |
| 2026-04-28 14:20 | 18.74420 | 72.75401 | 9238 ft | 296 kts | 163° |
| 2026-04-28 14:21 | 18.72498 | 72.76080 | 9895 ft | 294 kts | 163° |
| 2026-04-28 14:21 | 18.70517 | 72.76777 | 10213 ft | 306 kts | 162° |
| 2026-04-28 14:21 | 18.68445 | 72.77501 | 10437 ft | 319 kts | 163° |
| 2026-04-28 14:21 | 18.66292 | 72.78250 | 10652 ft | 332 kts | 163° |
| 2026-04-28 14:22 | 18.64070 | 72.79021 | 10956 ft | 340 kts | 163° |
| 2026-04-28 14:22 | 18.61809 | 72.79808 | 11359 ft | 344 kts | 163° |
| 2026-04-28 14:22 | 18.59520 | 72.80604 | 11818 ft | 347 kts | 163° |
| 2026-04-28 14:22 | 18.57222 | 72.81404 | 12256 ft | 350 kts | 162° |
| 2026-04-28 14:23 | 18.54896 | 72.82212 | 12680 ft | 354 kts | 163° |
| 2026-04-28 14:23 | 18.52543 | 72.83027 | 13130 ft | 356 kts | 162° |
| 2026-04-28 14:23 | 18.50211 | 72.83838 | 13591 ft | 359 kts | 162° |
| 2026-04-28 14:23 | 18.47798 | 72.84675 | 13964 ft | 362 kts | 163° |
| 2026-04-28 14:24 | 18.45427 | 72.85493 | 14322 ft | 365 kts | 163° |
| 2026-04-28 14:24 | 18.43000 | 72.86333 | 14665 ft | 369 kts | 162° |
| 2026-04-28 14:24 | 18.40556 | 72.87182 | 15039 ft | 372 kts | 162° |
| 2026-04-28 14:24 | 18.38084 | 72.88039 | 15433 ft | 374 kts | 162° |
| 2026-04-28 14:25 | 18.35596 | 72.88902 | 15779 ft | 378 kts | 162° |
| 2026-04-28 14:25 | 18.33111 | 72.89762 | 16181 ft | 380 kts | 162° |
| 2026-04-28 14:25 | 18.30566 | 72.90643 | 16594 ft | 382 kts | 161° |
| 2026-04-28 14:25 | 18.28058 | 72.91511 | 16920 ft | 386 kts | 161° |
| 2026-04-28 14:26 | 18.25490 | 72.92400 | 17231 ft | 390 kts | 161° |
| 2026-04-28 14:26 | 18.22898 | 72.93296 | 17601 ft | 393 kts | 161° |
| 2026-04-28 14:26 | 18.20289 | 72.94197 | 17981 ft | 395 kts | 161° |
| 2026-04-28 14:26 | 18.17667 | 72.95103 | 18310 ft | 398 kts | 161° |
| 2026-04-28 14:27 | 18.15034 | 72.96012 | 18714 ft | 397 kts | 162° |
| 2026-04-28 14:27 | 18.12411 | 72.96920 | 19081 ft | 398 kts | 162° |
| 2026-04-28 14:27 | 18.09828 | 72.97992 | 19374 ft | 401 kts | 154° |
| 2026-04-28 14:27 | 18.07434 | 72.99502 | 19685 ft | 403 kts | 143° |
| 2026-04-28 14:28 | 18.05276 | 73.01398 | 19993 ft | 405 kts | 138° |
| 2026-04-28 14:28 | 18.03182 | 73.03404 | 20307 ft | 408 kts | 137° |
| 2026-04-28 14:28 | 18.01089 | 73.05422 | 20621 ft | 410 kts | 138° |
| 2026-04-28 14:28 | 17.98976 | 73.07452 | 20928 ft | 412 kts | 138° |
| 2026-04-28 14:29 | 17.96874 | 73.09466 | 21236 ft | 415 kts | 138° |
| 2026-04-28 14:29 | 17.94736 | 73.11510 | 21525 ft | 417 kts | 138° |
| 2026-04-28 14:29 | 17.92581 | 73.13568 | 21838 ft | 419 kts | 139° |
| 2026-04-28 14:29 | 17.90419 | 73.15632 | 22125 ft | 422 kts | 139° |
| 2026-04-28 14:30 | 17.88246 | 73.17704 | 22417 ft | 424 kts | 139° |
| 2026-04-28 14:30 | 17.86051 | 73.19797 | 22728 ft | 426 kts | 139° |
| 2026-04-28 14:30 | 17.83844 | 73.21900 | 23017 ft | 428 kts | 139° |
| 2026-04-28 14:30 | 17.81632 | 73.24007 | 23311 ft | 431 kts | 139° |
| 2026-04-28 14:31 | 17.79407 | 73.26126 | 23555 ft | 433 kts | 139° |
| 2026-04-28 14:31 | 17.77190 | 73.28237 | 23783 ft | 435 kts | 139° |
| 2026-04-28 14:31 | 17.74941 | 73.30376 | 24013 ft | 438 kts | 140° |
| 2026-04-28 14:31 | 17.72674 | 73.32533 | 24240 ft | 440 kts | 140° |
| 2026-04-28 14:32 | 17.70402 | 73.34693 | 24448 ft | 442 kts | 140° |
| 2026-04-28 14:32 | 17.68114 | 73.36868 | 24666 ft | 445 kts | 140° |
| 2026-04-28 14:32 | 17.66590 | 73.38316 | 24828 ft | 446 kts | 140° |
| 2026-04-28 14:32 | 17.64279 | 73.40511 | 25069 ft | 448 kts | 140° |
| 2026-04-28 14:33 | 17.61965 | 73.42708 | 25295 ft | 451 kts | 141° |
| 2026-04-28 14:33 | 17.59633 | 73.44922 | 25518 ft | 453 kts | 141° |
| 2026-04-28 14:33 | 17.57291 | 73.47145 | 25748 ft | 455 kts | 141° |
| 2026-04-28 14:33 | 17.54932 | 73.49382 | 25983 ft | 457 kts | 141° |
| 2026-04-28 14:34 | 17.50186 | 73.53881 | 26470 ft | 462 kts | 141° |
| 2026-04-28 14:34 | 17.47824 | 73.56120 | 26707 ft | 464 kts | 141° |
| 2026-04-28 14:34 | 17.45424 | 73.58393 | 26946 ft | 466 kts | 141° |
| 2026-04-28 14:35 | 17.43012 | 73.60677 | 27185 ft | 468 kts | 141° |
| 2026-04-28 14:35 | 17.40589 | 73.62970 | 27431 ft | 471 kts | 141° |
| 2026-04-28 14:35 | 17.38151 | 73.65277 | 27643 ft | 474 kts | 141° |
| 2026-04-28 14:35 | 17.35693 | 73.67601 | 27870 ft | 477 kts | 142° |
| 2026-04-28 14:36 | 17.33223 | 73.69937 | 28134 ft | 479 kts | 142° |
| 2026-04-28 14:36 | 17.30742 | 73.72281 | 28394 ft | 482 kts | 142° |
| 2026-04-28 14:36 | 17.28237 | 73.74647 | 28653 ft | 484 kts | 142° |
| 2026-04-28 14:36 | 17.25726 | 73.77019 | 28895 ft | 487 kts | 142° |
| 2026-04-28 14:37 | 17.23240 | 73.79365 | 29136 ft | 489 kts | 142° |
| 2026-04-28 14:37 | 17.20704 | 73.81759 | 29401 ft | 491 kts | 142° |
| 2026-04-28 14:37 | 17.18160 | 73.84158 | 29656 ft | 494 kts | 142° |
| 2026-04-28 14:37 | 17.15607 | 73.86565 | 29903 ft | 496 kts | 142° |
| 2026-04-28 14:38 | 17.13036 | 73.88988 | 30131 ft | 498 kts | 142° |
| 2026-04-28 14:38 | 17.10456 | 73.91419 | 30373 ft | 501 kts | 142° |
| 2026-04-28 14:38 | 17.07863 | 73.93861 | 30627 ft | 502 kts | 142° |
| 2026-04-28 14:38 | 17.05261 | 73.96312 | 30905 ft | 503 kts | 142° |
| 2026-04-28 14:39 | 17.02655 | 73.98764 | 31159 ft | 505 kts | 142° |
| 2026-04-28 14:39 | 17.00036 | 74.01228 | 31404 ft | 508 kts | 142° |
| 2026-04-28 14:39 | 16.97435 | 74.03674 | 31662 ft | 510 kts | 142° |
| 2026-04-28 14:39 | 16.94763 | 74.06185 | 31897 ft | 512 kts | 142° |
| 2026-04-28 14:40 | 16.92142 | 74.08648 | 32135 ft | 514 kts | 142° |
| 2026-04-28 14:40 | 16.90341 | 74.10345 | 32300 ft | 516 kts | 142° |
| 2026-04-28 14:40 | 16.87053 | 74.13962 | 32637 ft | 522 kts | 134° |
| 2026-04-28 14:40 | 16.84731 | 74.16902 | 32888 ft | 525 kts | 132° |
| 2026-04-28 14:41 | 16.82452 | 74.19908 | 33137 ft | 528 kts | 131° |
| 2026-04-28 14:41 | 16.80193 | 74.22939 | 33378 ft | 530 kts | 131° |
| 2026-04-28 14:41 | 16.77933 | 74.25976 | 33599 ft | 532 kts | 131° |
| 2026-04-28 14:41 | 16.75655 | 74.29025 | 33934 ft | 531 kts | 131° |
| 2026-04-28 14:42 | 16.73370 | 74.32065 | 34161 ft | 533 kts | 131° |
| 2026-04-28 14:42 | 16.71070 | 74.35112 | 34345 ft | 535 kts | 131° |
| 2026-04-28 14:42 | 16.68762 | 74.38158 | 34595 ft | 535 kts | 131° |
| 2026-04-28 14:42 | 16.66451 | 74.41204 | 34914 ft | 534 kts | 131° |
| 2026-04-28 14:43 | 16.64175 | 74.44201 | 35248 ft | 533 kts | 131° |
| 2026-04-28 14:43 | 16.61879 | 74.47223 | 35576 ft | 531 kts | 131° |
| 2026-04-28 14:43 | 16.59585 | 74.50241 | 35889 ft | 530 kts | 131° |
| 2026-04-28 14:43 | 16.57295 | 74.53252 | 36207 ft | 529 kts | 131° |
| 2026-04-28 14:44 | 16.55018 | 74.56246 | 36508 ft | 528 kts | 131° |
| 2026-04-28 14:44 | 16.52731 | 74.59252 | 36838 ft | 527 kts | 131° |
| 2026-04-28 14:44 | 16.50450 | 74.62249 | 37169 ft | 526 kts | 131° |
| 2026-04-28 14:44 | 16.48178 | 74.65233 | 37499 ft | 525 kts | 131° |
| 2026-04-28 14:45 | 16.45903 | 74.68217 | 37810 ft | 524 kts | 131° |
| 2026-04-28 14:45 | 16.43633 | 74.71194 | 38134 ft | 524 kts | 131° |
| 2026-04-28 14:45 | 16.41370 | 74.74159 | 38441 ft | 523 kts | 131° |
| 2026-04-28 14:45 | 16.39098 | 74.77137 | 38713 ft | 523 kts | 131° |
| 2026-04-28 14:46 | 16.36841 | 74.80094 | 39011 ft | 520 kts | 131° |
| 2026-04-28 14:46 | 16.34593 | 74.83038 | 39315 ft | 518 kts | 131° |
| 2026-04-28 14:46 | 16.32344 | 74.85983 | 39622 ft | 516 kts | 130° |
| 2026-04-28 14:46 | 16.30109 | 74.88907 | 39900 ft | 515 kts | 130° |
| 2026-04-28 14:47 | 16.27913 | 74.91779 | 40177 ft | 513 kts | 130° |
| 2026-04-28 14:47 | 16.25664 | 74.94720 | 40446 ft | 512 kts | 130° |
| 2026-04-28 14:47 | 16.23481 | 74.97572 | 40696 ft | 510 kts | 129° |
| 2026-04-28 14:47 | 16.21235 | 75.00505 | 40814 ft | 513 kts | 129° |
| 2026-04-28 14:48 | 16.19032 | 75.03382 | 40812 ft | 517 kts | 129° |
| 2026-04-28 14:48 | 16.14518 | 75.09272 | 40791 ft | 522 kts | 129° |
| 2026-04-28 14:49 | 16.09979 | 75.15193 | 40805 ft | 522 kts | 129° |
| 2026-04-28 14:49 | 16.05443 | 75.21103 | 40806 ft | 522 kts | 129° |
| 2026-04-28 14:50 | 16.00913 | 75.27000 | 40797 ft | 522 kts | 129° |
| 2026-04-28 14:50 | 15.96374 | 75.32904 | 40812 ft | 522 kts | 129° |
| 2026-04-28 14:51 | 15.91867 | 75.38763 | 40799 ft | 522 kts | 129° |
| 2026-04-28 14:51 | 15.87325 | 75.44661 | 40804 ft | 522 kts | 129° |
| 2026-04-28 14:52 | 15.82786 | 75.50551 | 40800 ft | 522 kts | 129° |
| 2026-04-28 14:52 | 15.78256 | 75.56424 | 40797 ft | 521 kts | 129° |
| 2026-04-28 14:53 | 15.73726 | 75.62294 | 40795 ft | 521 kts | 129° |
| 2026-04-28 14:53 | 15.69186 | 75.68170 | 40801 ft | 521 kts | 129° |
| 2026-04-28 14:54 | 15.64647 | 75.74043 | 40793 ft | 521 kts | 129° |
| 2026-04-28 14:54 | 15.60139 | 75.79869 | 40795 ft | 521 kts | 130° |
| 2026-04-28 14:55 | 15.55598 | 75.85734 | 40798 ft | 521 kts | 130° |
| 2026-04-28 14:55 | 15.51047 | 75.91608 | 40790 ft | 521 kts | 130° |
| 2026-04-28 14:56 | 15.46505 | 75.97464 | 40785 ft | 520 kts | 130° |
| 2026-04-28 14:56 | 15.41995 | 76.03275 | 40790 ft | 520 kts | 130° |
| 2026-04-28 14:57 | 15.37462 | 76.09111 | 40779 ft | 520 kts | 130° |
| 2026-04-28 14:57 | 15.32924 | 76.14949 | 40796 ft | 520 kts | 130° |
| 2026-04-28 14:58 | 15.28368 | 76.20807 | 40791 ft | 522 kts | 130° |
| 2026-04-28 14:58 | 15.23806 | 76.26667 | 40791 ft | 522 kts | 130° |
| 2026-04-28 14:59 | 15.19247 | 76.32519 | 40798 ft | 521 kts | 130° |
| 2026-04-28 14:59 | 15.14085 | 76.37586 | 40798 ft | 512 kts | 149° |
| 2026-04-28 14:59 | 15.11094 | 76.39591 | 40557 ft | 509 kts | 150° |
| 2026-04-28 15:00 | 15.08099 | 76.41539 | 40324 ft | 509 kts | 150° |
| 2026-04-28 15:00 | 15.05098 | 76.43490 | 39931 ft | 508 kts | 150° |
| 2026-04-28 15:00 | 15.02106 | 76.45441 | 39229 ft | 511 kts | 151° |
| 2026-04-28 15:00 | 14.99221 | 76.47326 | 38610 ft | 512 kts | 151° |
| 2026-04-28 15:01 | 14.96202 | 76.49299 | 37904 ft | 513 kts | 152° |
| 2026-04-28 15:01 | 14.93189 | 76.51269 | 37241 ft | 512 kts | 151° |
| 2026-04-28 15:01 | 14.90173 | 76.53242 | 36593 ft | 511 kts | 151° |
| 2026-04-28 15:01 | 14.87173 | 76.55204 | 35932 ft | 511 kts | 151° |
| 2026-04-28 15:02 | 14.84158 | 76.57174 | 35237 ft | 511 kts | 151° |
| 2026-04-28 15:02 | 14.81198 | 76.59109 | 34613 ft | 510 kts | 151° |
| 2026-04-28 15:02 | 14.78202 | 76.61068 | 34099 ft | 506 kts | 151° |
| 2026-04-28 15:02 | 14.75241 | 76.63003 | 33538 ft | 502 kts | 151° |
| 2026-04-28 15:03 | 14.72299 | 76.64924 | 32998 ft | 497 kts | 151° |
| 2026-04-28 15:03 | 14.69385 | 76.66827 | 32468 ft | 493 kts | 151° |
| 2026-04-28 15:03 | 14.66497 | 76.68712 | 31970 ft | 489 kts | 151° |
| 2026-04-28 15:03 | 14.63641 | 76.70575 | 31458 ft | 485 kts | 151° |
| 2026-04-28 15:04 | 14.60801 | 76.72427 | 30965 ft | 481 kts | 151° |
| 2026-04-28 15:04 | 14.57974 | 76.74270 | 30461 ft | 478 kts | 151° |
| 2026-04-28 15:04 | 14.55171 | 76.76096 | 29981 ft | 475 kts | 150° |
| 2026-04-28 15:04 | 14.52385 | 76.77911 | 29424 ft | 472 kts | 150° |
| 2026-04-28 15:05 | 14.49624 | 76.79710 | 28912 ft | 467 kts | 150° |
| 2026-04-28 15:05 | 14.46883 | 76.81495 | 28404 ft | 462 kts | 150° |
| 2026-04-28 15:05 | 14.44203 | 76.83239 | 27922 ft | 458 kts | 150° |
| 2026-04-28 15:05 | 14.41525 | 76.84982 | 27441 ft | 454 kts | 150° |
| 2026-04-28 15:06 | 14.38857 | 76.86718 | 26939 ft | 450 kts | 150° |
| 2026-04-28 15:06 | 14.36213 | 76.88437 | 26443 ft | 446 kts | 150° |
| 2026-04-28 15:06 | 14.33594 | 76.90140 | 25946 ft | 443 kts | 149° |
| 2026-04-28 15:06 | 14.31003 | 76.91825 | 25443 ft | 439 kts | 149° |
| 2026-04-28 15:07 | 14.28425 | 76.93500 | 24946 ft | 436 kts | 149° |
| 2026-04-28 15:07 | 14.25862 | 76.95165 | 24437 ft | 433 kts | 149° |
| 2026-04-28 15:07 | 14.23323 | 76.96815 | 23933 ft | 430 kts | 149° |
| 2026-04-28 15:07 | 14.20799 | 76.98454 | 23368 ft | 428 kts | 148° |
| 2026-04-28 15:08 | 14.18282 | 77.00092 | 22738 ft | 425 kts | 148° |
| 2026-04-28 15:08 | 14.15802 | 77.01710 | 22184 ft | 421 kts | 148° |
| 2026-04-28 15:08 | 14.13342 | 77.03313 | 21682 ft | 416 kts | 148° |
| 2026-04-28 15:08 | 14.10939 | 77.04878 | 21153 ft | 412 kts | 148° |
| 2026-04-28 15:09 | 14.08522 | 77.06452 | 20634 ft | 408 kts | 148° |
| 2026-04-28 15:09 | 14.06131 | 77.08008 | 20090 ft | 405 kts | 148° |
| 2026-04-28 15:09 | 14.03752 | 77.09556 | 19561 ft | 402 kts | 148° |
| 2026-04-28 15:09 | 14.02188 | 77.10574 | 19198 ft | 400 kts | 148° |
| 2026-04-28 15:10 | 13.99058 | 77.12614 | 18501 ft | 397 kts | 147° |
| 2026-04-28 15:10 | 13.96727 | 77.14128 | 17924 ft | 395 kts | 147° |
| 2026-04-28 15:10 | 13.94409 | 77.15633 | 17379 ft | 391 kts | 147° |
| 2026-04-28 15:10 | 13.92126 | 77.17116 | 16846 ft | 387 kts | 147° |
| 2026-04-28 15:11 | 13.89887 | 77.18570 | 16338 ft | 383 kts | 147° |
| 2026-04-28 15:11 | 13.87618 | 77.20044 | 15828 ft | 379 kts | 147° |
| 2026-04-28 15:11 | 13.85406 | 77.21480 | 15314 ft | 375 kts | 147° |
| 2026-04-28 15:11 | 13.83242 | 77.22886 | 14797 ft | 371 kts | 147° |
| 2026-04-28 15:12 | 13.81063 | 77.24300 | 14293 ft | 367 kts | 147° |
| 2026-04-28 15:12 | 13.78907 | 77.25701 | 13827 ft | 363 kts | 146° |
| 2026-04-28 15:12 | 13.76808 | 77.27071 | 13583 ft | 351 kts | 147° |
| 2026-04-28 15:12 | 13.74781 | 77.28382 | 13383 ft | 338 kts | 147° |
| 2026-04-28 15:13 | 13.72992 | 77.29540 | 13177 ft | 326 kts | 147° |
| 2026-04-28 15:13 | 13.71135 | 77.30741 | 12908 ft | 304 kts | 147° |
| 2026-04-28 15:13 | 13.69407 | 77.31860 | 12684 ft | 284 kts | 146° |
| 2026-04-28 15:13 | 13.67791 | 77.32906 | 12457 ft | 265 kts | 146° |
| 2026-04-28 15:14 | 13.66273 | 77.33890 | 12258 ft | 256 kts | 146° |
| 2026-04-28 15:14 | 13.64767 | 77.34867 | 12074 ft | 256 kts | 146° |
| 2026-04-28 15:14 | 13.63257 | 77.35847 | 11868 ft | 256 kts | 146° |
| 2026-04-28 15:14 | 13.61756 | 77.36820 | 11694 ft | 255 kts | 146° |
| 2026-04-28 15:15 | 13.60255 | 77.37793 | 11491 ft | 254 kts | 146° |
| 2026-04-28 15:15 | 13.59266 | 77.38432 | 11377 ft | 254 kts | 146° |
| 2026-04-28 15:15 | 13.57145 | 77.39484 | 11075 ft | 253 kts | 156° |
| 2026-04-28 15:15 | 13.55503 | 77.40137 | 10867 ft | 252 kts | 157° |
| 2026-04-28 15:16 | 13.53863 | 77.40777 | 10690 ft | 251 kts | 157° |
| 2026-04-28 15:16 | 13.52230 | 77.41416 | 10484 ft | 251 kts | 156° |
| 2026-04-28 15:16 | 13.50597 | 77.42057 | 10291 ft | 251 kts | 156° |
| 2026-04-28 15:16 | 13.48987 | 77.42691 | 10109 ft | 250 kts | 156° |
| 2026-04-28 15:17 | 13.47362 | 77.43331 | 9918 ft | 249 kts | 156° |
| 2026-04-28 15:17 | 13.45743 | 77.43969 | 9745 ft | 249 kts | 156° |
| 2026-04-28 15:17 | 13.44127 | 77.44606 | 9535 ft | 248 kts | 156° |
| 2026-04-28 15:17 | 13.42508 | 77.45233 | 9352 ft | 248 kts | 159° |
| 2026-04-28 15:18 | 13.40801 | 77.45566 | 9160 ft | 251 kts | 173° |
| 2026-04-28 15:18 | 13.39648 | 77.45630 | 9024 ft | 251 kts | 175° |
| 2026-04-28 15:18 | 13.37911 | 77.45680 | 8855 ft | 244 kts | 176° |
| 2026-04-28 15:18 | 13.36276 | 77.45720 | 8717 ft | 227 kts | 176° |
| 2026-04-28 15:19 | 13.34719 | 77.45764 | 8547 ft | 221 kts | 175° |
| 2026-04-28 15:19 | 13.33191 | 77.45811 | 8375 ft | 220 kts | 175° |
| 2026-04-28 15:19 | 13.31660 | 77.45846 | 8204 ft | 220 kts | 178° |
| 2026-04-28 15:19 | 13.29639 | 77.45579 | 7958 ft | 222 kts | 188° |
| 2026-04-28 15:20 | 13.28611 | 77.45376 | 7839 ft | 222 kts | 189° |
| 2026-04-28 15:20 | 13.27099 | 77.45071 | 7674 ft | 221 kts | 189° |
| 2026-04-28 15:20 | 13.25588 | 77.44766 | 7506 ft | 221 kts | 189° |
| 2026-04-28 15:20 | 13.24093 | 77.44474 | 7329 ft | 219 kts | 188° |
| 2026-04-28 15:21 | 13.22600 | 77.44539 | 7166 ft | 215 kts | 155° |
| 2026-04-28 15:21 | 13.21517 | 77.45506 | 7026 ft | 206 kts | 117° |
| 2026-04-28 15:21 | 13.20989 | 77.46856 | 6851 ft | 203 kts | 99° |
| 2026-04-28 15:21 | 13.20880 | 77.48242 | 6761 ft | 189 kts | 87° |
| 2026-04-28 15:22 | 13.20883 | 77.49578 | 6537 ft | 186 kts | 88° |
| 2026-04-28 15:22 | 13.20870 | 77.50903 | 6271 ft | 185 kts | 89° |
| 2026-04-28 15:22 | 13.20855 | 77.52209 | 6034 ft | 181 kts | 88° |
| 2026-04-28 15:22 | 13.20845 | 77.53491 | 5785 ft | 178 kts | 88° |
| 2026-04-28 15:23 | 13.20834 | 77.54745 | 5553 ft | 173 kts | 88° |
| 2026-04-28 15:23 | 13.20823 | 77.55947 | 5336 ft | 162 kts | 88° |
| 2026-04-28 15:23 | 13.20813 | 77.57050 | 5143 ft | 151 kts | 88° |
| 2026-04-28 15:23 | 13.20805 | 77.58095 | 4961 ft | 142 kts | 88° |
| 2026-04-28 15:24 | 13.20797 | 77.59093 | 4797 ft | 139 kts | 88° |
| 2026-04-28 15:24 | 13.20789 | 77.60089 | 4625 ft | 140 kts | 88° |
| 2026-04-28 15:24 | 13.20780 | 77.61089 | 4441 ft | 140 kts | 89° |
| 2026-04-28 15:24 | 13.20772 | 77.62086 | 4268 ft | 140 kts | 89° |
| 2026-04-28 15:25 | 13.20763 | 77.63084 | 4087 ft | 140 kts | 89° |
| 2026-04-28 15:25 | 13.20754 | 77.64085 | 3908 ft | 140 kts | 89° |
| 2026-04-28 15:25 | 13.20746 | 77.65084 | 3741 ft | 140 kts | 89° |
| 2026-04-28 15:25 | 13.20736 | 77.66095 | 3560 ft | 142 kts | 89° |
| 2026-04-28 15:26 | 13.20730 | 77.67105 | 3383 ft | 143 kts | 88° |
| 2026-04-28 15:26 | 13.20731 | 77.68146 | 3172 ft | 145 kts | 89° |
| 2026-04-28 15:26 | 13.20712 | 77.69164 | 3041 ft | 141 kts | 88° |
| 2026-04-28 15:26 | 13.20685 | 77.70115 | 3184 ft | 134 kts | 89° |
| 2026-04-28 15:27 | 13.20679 | 77.71181 | 3787 ft | 164 kts | 88° |
| 2026-04-28 15:27 | 13.20706 | 77.72418 | 4480 ft | 182 kts | 86° |
| 2026-04-28 15:27 | 13.20762 | 77.73774 | 5231 ft | 198 kts | 89° |
| 2026-04-28 15:27 | 13.20777 | 77.75257 | 6037 ft | 219 kts | 86° |
| 2026-04-28 15:28 | 13.20882 | 77.76930 | 6643 ft | 253 kts | 88° |
| 2026-04-28 15:28 | 13.20864 | 77.78794 | 6930 ft | 269 kts | 90° |
| 2026-04-28 15:28 | 13.20808 | 77.80740 | 7002 ft | 274 kts | 91° |
| 2026-04-28 15:28 | 13.20755 | 77.82660 | 6941 ft | 261 kts | 91° |
| 2026-04-28 15:29 | 13.20969 | 77.84428 | 6941 ft | 241 kts | 69° |
| 2026-04-28 15:29 | 13.21907 | 77.85756 | 6937 ft | 224 kts | 39° |
| 2026-04-28 15:29 | 13.23162 | 77.86578 | 6933 ft | 209 kts | 30° |
| 2026-04-28 15:29 | 13.24433 | 77.87264 | 6939 ft | 204 kts | 29° |
| 2026-04-28 15:30 | 13.25681 | 77.87953 | 6942 ft | 204 kts | 35° |
| 2026-04-28 15:30 | 13.26763 | 77.89028 | 6967 ft | 234 kts | 57° |
| 2026-04-28 15:30 | 13.27240 | 77.90713 | 6962 ft | 263 kts | 91° |
| 2026-04-28 15:30 | 13.26661 | 77.92521 | 6953 ft | 273 kts | 123° |
| 2026-04-28 15:31 | 13.25337 | 77.93843 | 6939 ft | 259 kts | 143° |
| 2026-04-28 15:31 | 13.23784 | 77.94605 | 6911 ft | 246 kts | 164° |
| 2026-04-28 15:31 | 13.22157 | 77.94448 | 6924 ft | 233 kts | 204° |
| 2026-04-28 15:31 | 13.21043 | 77.93344 | 6877 ft | 221 kts | 243° |
| 2026-04-28 15:32 | 13.20533 | 77.91875 | 6696 ft | 220 kts | 261° |
| 2026-04-28 15:32 | 13.20501 | 77.90311 | 6419 ft | 219 kts | 274° |
| 2026-04-28 15:32 | 13.20564 | 77.88751 | 6078 ft | 216 kts | 270° |
| 2026-04-28 15:32 | 13.20557 | 77.87244 | 5751 ft | 208 kts | 271° |
| 2026-04-28 15:33 | 13.20566 | 77.85789 | 5420 ft | 201 kts | 272° |
| 2026-04-28 15:33 | 13.20581 | 77.84389 | 5115 ft | 190 kts | 272° |
| 2026-04-28 15:33 | 13.20591 | 77.83071 | 4876 ft | 179 kts | 272° |
| 2026-04-28 15:33 | 13.20601 | 77.81849 | 4669 ft | 168 kts | 272° |
| 2026-04-28 15:34 | 13.20611 | 77.80678 | 4511 ft | 160 kts | 272° |
| 2026-04-28 15:34 | 13.20621 | 77.79573 | 4309 ft | 151 kts | 272° |
| 2026-04-28 15:34 | 13.20631 | 77.78497 | 4131 ft | 150 kts | 271° |
| 2026-04-28 15:34 | 13.20641 | 77.77427 | 3942 ft | 149 kts | 271° |
| 2026-04-28 15:35 | 13.20649 | 77.76369 | 3756 ft | 147 kts | 272° |
| 2026-04-28 15:35 | 13.20673 | 77.74308 | 3444 ft | 143 kts | 272° |
| 2026-04-28 15:35 | 13.20679 | 77.73304 | 3268 ft | 139 kts | 271° |
| 2026-04-28 15:36 | 13.20686 | 77.72305 | 3080 ft | 141 kts | 270° |
| 2026-04-28 15:36 | 13.20699 | 77.71332 | 3017 ft | 124 kts | 270° |
| 2026-04-28 15:36 | 13.20702 | 77.70609 | 3026 ft | 58 kts | 270° |
| 2026-04-28 15:36 | 13.20676 | 77.70428 | 3017 ft | 20 kts | 251° |
| 2026-04-28 15:37 | 13.20622 | 77.70313 | 3024 ft | 12 kts | 240° |
| 2026-04-28 15:37 | 13.20563 | 77.70291 | 3026 ft | 9 kts | 155° |
| 2026-04-28 15:37 | 13.20535 | 77.70351 | 3018 ft | 10 kts | 99° |
| 2026-04-28 15:37 | 13.20531 | 77.70430 | 3017 ft | 12 kts | 92° |
| 2026-04-28 15:38 | 13.20531 | 77.70522 | 3017 ft | 14 kts | 89° |
| 2026-04-28 15:38 | 13.20532 | 77.70628 | 3017 ft | 16 kts | 90° |
| 2026-04-28 15:38 | 13.20531 | 77.70749 | 3017 ft | 18 kts | 91° |
| 2026-04-28 15:38 | 13.20528 | 77.70891 | 3017 ft | 21 kts | 91° |
| 2026-04-28 15:39 | 13.20527 | 77.71047 | 3017 ft | 23 kts | 90° |
| 2026-04-28 15:39 | 13.20525 | 77.71219 | 3017 ft | 25 kts | 90° |
| 2026-04-28 15:39 | 13.20524 | 77.71407 | 3017 ft | 27 kts | 90° |
| 2026-04-28 15:39 | 13.20522 | 77.71608 | 3018 ft | 29 kts | 90° |
| 2026-04-28 15:40 | 13.20520 | 77.71821 | 3025 ft | 31 kts | 90° |
| 2026-04-28 15:40 | 13.20519 | 77.71997 | 3025 ft | 15 kts | 90° |
| 2026-04-28 15:40 | 13.20519 | 77.72031 | 3025 ft | 0 kts | 90° |
| 2026-04-28 15:40 | 13.20519 | 77.72032 | 3025 ft | 2 kts | 90° |
| 2026-04-28 15:41 | 13.20514 | 77.72071 | 3026 ft | 6 kts | 112° |
| 2026-04-28 15:41 | 13.20476 | 77.72105 | 3024 ft | 8 kts | 155° |
| 2026-04-28 15:41 | 13.20410 | 77.72113 | 3020 ft | 11 kts | 178° |
| 2026-04-28 15:41 | 13.20329 | 77.72113 | 3019 ft | 13 kts | 180° |
| 2026-04-28 15:42 | 13.20231 | 77.72111 | 3020 ft | 15 kts | 189° |
| 2026-04-28 15:42 | 13.20182 | 77.72033 | 3021 ft | 14 kts | 263° |
| 2026-04-28 15:42 | 13.20181 | 77.72017 | 3020 ft | 0 kts | 268° |
| 2026-04-28 15:42 | 13.20181 | 77.72004 | 3018 ft | 6 kts | 268° |
| 2026-04-28 15:43 | 13.20181 | 77.71939 | 3018 ft | 15 kts | 270° |
| 2026-04-28 15:43 | 13.20154 | 77.71910 | 3019 ft | 7 kts | 193° |
| 2026-04-28 15:43 | 13.20114 | 77.71910 | 3024 ft | 4 kts | 180° |
| 2026-04-28 15:43 | 13.20088 | 77.71910 | 3019 ft | 0 kts | 179° |